Terminal Aerodrome Forecast
Issued by NWS

Home | Current Version | Previous Version | Text Only | Print | Product List | Glossary Off
Versions: 1 2 3 4 5 6 7 8 9 10 11 12 13 14 15 16 17 18

000
FTUS43 KMPX 181100
TAFRWF
TAF
KRWF 181120Z 1812/1912 13005KT P6SM SCT040 OVC070
     FM181600 13013G20KT P6SM SCT080 BKN200
     FM181800 14019G28KT P6SM SCT100 SCT250
     FM190000 13015G21KT P6SM SCT100 BKN200
     FM191000 16017G27KT P6SM SCT050 BKN100=

USA.gov is the U.S. government's official web portal to all federal, state and local government web resources and services.